AFL1768 UUEE-USPP
Flight info
| Callsign | AFL1768 |
|---|---|
| Flight time | 1h 40m |
| Altitude | 35000 |
| Route | OLMU3H OLMUN T629 IPSIL T830 LAMGU N604 OGSIN P983 SUMOM SUMO1E |
| Aircraft | B738/M-V/N |
Departure
| Time | 2026-05-07 17:34 |
|---|---|
| Airport | Sheremetyevo International Airport (UUEE) |
Arrival
| Time | 2026-05-07 19:14 |
|---|---|
| Airport | Perm International Airport (USPP) |
| Time | Latitude | Longitude | Altitude | Speed | Heading |
|---|---|---|---|---|---|
| 2026-05-07 16:33 | 55.97994 | 37.41567 | 638 ft | 0 kts | 76° |
| 2026-05-07 17:21 | 55.97993 | 37.41559 | 638 ft | 3 kts | 76° |
| 2026-05-07 17:21 | 55.97988 | 37.41523 | 638 ft | 3 kts | 81° |
| 2026-05-07 17:21 | 55.97986 | 37.41488 | 638 ft | 3 kts | 90° |
| 2026-05-07 17:22 | 55.97987 | 37.41453 | 638 ft | 3 kts | 113° |
| 2026-05-07 17:22 | 55.97997 | 37.41429 | 638 ft | 3 kts | 162° |
| 2026-05-07 17:22 | 55.97999 | 37.41428 | 638 ft | 1 kts | 165° |
| 2026-05-07 17:28 | 55.97997 | 37.41429 | 641 ft | 1 kts | 165° |
| 2026-05-07 17:28 | 55.97967 | 37.41444 | 638 ft | 6 kts | 165° |
| 2026-05-07 17:28 | 55.97910 | 37.41471 | 641 ft | 10 kts | 165° |
| 2026-05-07 17:28 | 55.97834 | 37.41506 | 638 ft | 11 kts | 165° |
| 2026-05-07 17:29 | 55.97760 | 37.41542 | 640 ft | 11 kts | 165° |
| 2026-05-07 17:29 | 55.97687 | 37.41578 | 638 ft | 11 kts | 165° |
| 2026-05-07 17:29 | 55.97620 | 37.41625 | 638 ft | 10 kts | 134° |
| 2026-05-07 17:29 | 55.97619 | 37.41746 | 638 ft | 10 kts | 75° |
| 2026-05-07 17:30 | 55.97637 | 37.41865 | 638 ft | 10 kts | 75° |
| 2026-05-07 17:30 | 55.97654 | 37.41981 | 640 ft | 10 kts | 75° |
| 2026-05-07 17:30 | 55.97671 | 37.42094 | 638 ft | 10 kts | 75° |
| 2026-05-07 17:30 | 55.97689 | 37.42217 | 643 ft | 11 kts | 75° |
| 2026-05-07 17:31 | 55.97711 | 37.42365 | 639 ft | 13 kts | 75° |
| 2026-05-07 17:31 | 55.97736 | 37.42529 | 640 ft | 15 kts | 75° |
| 2026-05-07 17:31 | 55.97760 | 37.42691 | 638 ft | 10 kts | 75° |
| 2026-05-07 17:31 | 55.97743 | 37.42785 | 638 ft | 9 kts | 149° |
| 2026-05-07 17:32 | 55.97676 | 37.42822 | 638 ft | 11 kts | 165° |
| 2026-05-07 17:32 | 55.97621 | 37.42848 | 637 ft | 3 kts | 170° |
| 2026-05-07 17:32 | 55.97603 | 37.42821 | 638 ft | 4 kts | 244° |
| 2026-05-07 17:32 | 55.97597 | 37.42790 | 638 ft | 4 kts | 255° |
| 2026-05-07 17:33 | 55.97597 | 37.42785 | 638 ft | 0 kts | 255° |
| 2026-05-07 17:33 | 55.97596 | 37.42784 | 638 ft | 1 kts | 255° |
| 2026-05-07 17:33 | 55.97554 | 37.42493 | 638 ft | 60 kts | 255° |
| 2026-05-07 17:33 | 55.97382 | 37.41345 | 639 ft | 129 kts | 255° |
| 2026-05-07 17:34 | 55.97099 | 37.39487 | 790 ft | 170 kts | 256° |
| 2026-05-07 17:34 | 55.96774 | 37.37424 | 1537 ft | 175 kts | 255° |
| 2026-05-07 17:34 | 55.96442 | 37.35310 | 2447 ft | 177 kts | 255° |
| 2026-05-07 17:34 | 55.96109 | 37.33221 | 3498 ft | 175 kts | 257° |
| 2026-05-07 17:35 | 55.95779 | 37.31095 | 4436 ft | 183 kts | 256° |
| 2026-05-07 17:35 | 55.95415 | 37.28741 | 4856 ft | 212 kts | 255° |
| 2026-05-07 17:35 | 55.94991 | 37.26033 | 5170 ft | 237 kts | 253° |
| 2026-05-07 17:35 | 55.94524 | 37.23062 | 5551 ft | 260 kts | 253° |
| 2026-05-07 17:36 | 55.94026 | 37.19906 | 6405 ft | 266 kts | 253° |
| 2026-05-07 17:36 | 55.93526 | 37.16716 | 7415 ft | 268 kts | 254° |
| 2026-05-07 17:36 | 55.93018 | 37.13494 | 8340 ft | 273 kts | 253° |
| 2026-05-07 17:36 | 55.92497 | 37.10213 | 9242 ft | 276 kts | 253° |
| 2026-05-07 17:37 | 55.91969 | 37.06897 | 10149 ft | 280 kts | 253° |
| 2026-05-07 17:37 | 55.91660 | 37.03372 | 10601 ft | 303 kts | 273° |
| 2026-05-07 17:37 | 55.92330 | 36.99669 | 10889 ft | 330 kts | 301° |
| 2026-05-07 17:37 | 55.93982 | 36.96736 | 11594 ft | 342 kts | 322° |
| 2026-05-07 17:38 | 55.95949 | 36.94319 | 12438 ft | 346 kts | 325° |
| 2026-05-07 17:38 | 55.98137 | 36.92624 | 13184 ft | 356 kts | 347° |
| 2026-05-07 17:38 | 56.00627 | 36.92652 | 14003 ft | 363 kts | 9° |
| 2026-05-07 17:38 | 56.03010 | 36.94247 | 14737 ft | 372 kts | 29° |
| 2026-05-07 17:39 | 56.05188 | 36.96800 | 15479 ft | 377 kts | 33° |
| 2026-05-07 17:39 | 56.07368 | 36.99457 | 16178 ft | 381 kts | 32° |
| 2026-05-07 17:39 | 56.09577 | 37.02119 | 16893 ft | 385 kts | 34° |
| 2026-05-07 17:39 | 56.11512 | 37.05453 | 17529 ft | 392 kts | 54° |
| 2026-05-07 17:40 | 56.12709 | 37.09846 | 18210 ft | 395 kts | 73° |
| 2026-05-07 17:40 | 56.13379 | 37.14634 | 18894 ft | 398 kts | 77° |
| 2026-05-07 17:40 | 56.14016 | 37.19495 | 19515 ft | 402 kts | 77° |
| 2026-05-07 17:40 | 56.14567 | 37.24429 | 20077 ft | 406 kts | 86° |
| 2026-05-07 17:41 | 56.14269 | 37.29457 | 20632 ft | 408 kts | 109° |
| 2026-05-07 17:41 | 56.13040 | 37.33997 | 21246 ft | 406 kts | 128° |
| 2026-05-07 17:41 | 56.11110 | 37.37668 | 21812 ft | 405 kts | 145° |
| 2026-05-07 17:41 | 56.08676 | 37.40160 | 22355 ft | 404 kts | 157° |
| 2026-05-07 17:42 | 56.06974 | 37.41552 | 22692 ft | 407 kts | 158° |
| 2026-05-07 17:42 | 56.04374 | 37.43624 | 23181 ft | 411 kts | 158° |
| 2026-05-07 17:42 | 56.01758 | 37.45751 | 23678 ft | 415 kts | 158° |
| 2026-05-07 17:42 | 55.99132 | 37.47934 | 24177 ft | 418 kts | 157° |
| 2026-05-07 17:43 | 55.96565 | 37.50412 | 24611 ft | 425 kts | 144° |
| 2026-05-07 17:43 | 55.94530 | 37.54261 | 25052 ft | 432 kts | 125° |
| 2026-05-07 17:43 | 55.93232 | 37.59100 | 25529 ft | 437 kts | 106° |
| 2026-05-07 17:43 | 55.92621 | 37.64424 | 26000 ft | 439 kts | 101° |
| 2026-05-07 17:44 | 55.92098 | 37.69810 | 26386 ft | 443 kts | 101° |
| 2026-05-07 17:44 | 55.91416 | 37.75176 | 26740 ft | 446 kts | 112° |
| 2026-05-07 17:44 | 55.90008 | 37.80081 | 27162 ft | 445 kts | 121° |
| 2026-05-07 17:44 | 55.88440 | 37.84856 | 27571 ft | 447 kts | 122° |
| 2026-05-07 17:45 | 55.86869 | 37.89655 | 27928 ft | 451 kts | 121° |
| 2026-05-07 17:45 | 55.85310 | 37.94509 | 28262 ft | 454 kts | 121° |
| 2026-05-07 17:45 | 55.83762 | 37.99419 | 28638 ft | 455 kts | 121° |
| 2026-05-07 17:45 | 55.82215 | 38.04351 | 28993 ft | 458 kts | 121° |
| 2026-05-07 17:46 | 55.80678 | 38.09321 | 29333 ft | 460 kts | 117° |
| 2026-05-07 17:46 | 55.79685 | 38.14749 | 29617 ft | 465 kts | 98° |
| 2026-05-07 17:46 | 55.79596 | 38.20490 | 29967 ft | 467 kts | 87° |
| 2026-05-07 17:46 | 55.79803 | 38.26253 | 30296 ft | 468 kts | 86° |
| 2026-05-07 17:47 | 55.79999 | 38.32042 | 30572 ft | 471 kts | 87° |
| 2026-05-07 17:47 | 55.80147 | 38.37865 | 30900 ft | 471 kts | 88° |
| 2026-05-07 17:47 | 55.80508 | 38.43630 | 31310 ft | 469 kts | 75° |
| 2026-05-07 17:47 | 55.81479 | 38.49131 | 31806 ft | 465 kts | 70° |
| 2026-05-07 17:48 | 55.82554 | 38.54540 | 32240 ft | 463 kts | 70° |
| 2026-05-07 17:48 | 55.83604 | 38.59943 | 32610 ft | 462 kts | 71° |
| 2026-05-07 17:48 | 55.84603 | 38.65371 | 32947 ft | 461 kts | 72° |
| 2026-05-07 17:48 | 55.85572 | 38.70812 | 33278 ft | 461 kts | 71° |
| 2026-05-07 17:49 | 55.86705 | 38.76137 | 33605 ft | 460 kts | 65° |
| 2026-05-07 17:49 | 55.88071 | 38.81274 | 33956 ft | 458 kts | 63° |
| 2026-05-07 17:49 | 55.89509 | 38.86346 | 34215 ft | 459 kts | 62° |
| 2026-05-07 17:49 | 55.90944 | 38.91441 | 34387 ft | 462 kts | 63° |
| 2026-05-07 17:50 | 55.92356 | 38.96590 | 34535 ft | 463 kts | 63° |
| 2026-05-07 17:50 | 55.93739 | 39.01769 | 34653 ft | 461 kts | 64° |
| 2026-05-07 17:50 | 55.95100 | 39.06940 | 34774 ft | 459 kts | 64° |
| 2026-05-07 17:50 | 55.96451 | 39.12091 | 34866 ft | 458 kts | 64° |
| 2026-05-07 17:51 | 55.99183 | 39.22408 | 34896 ft | 460 kts | 63° |
| 2026-05-07 17:51 | 56.01909 | 39.32683 | 34903 ft | 461 kts | 64° |
| 2026-05-07 17:52 | 56.04644 | 39.43056 | 34912 ft | 461 kts | 64° |
| 2026-05-07 17:52 | 56.07373 | 39.53458 | 34915 ft | 462 kts | 64° |
| 2026-05-07 17:53 | 56.10519 | 39.63459 | 34928 ft | 461 kts | 55° |
| 2026-05-07 17:53 | 56.14089 | 39.73001 | 34915 ft | 461 kts | 54° |
| 2026-05-07 17:54 | 56.17641 | 39.82597 | 34922 ft | 461 kts | 55° |
| 2026-05-07 17:54 | 56.21113 | 39.92266 | 34926 ft | 460 kts | 56° |
| 2026-05-07 17:55 | 56.24555 | 40.01970 | 34923 ft | 460 kts | 56° |
| 2026-05-07 17:55 | 56.27984 | 40.11690 | 34932 ft | 460 kts | 56° |
| 2026-05-07 17:56 | 56.31404 | 40.21424 | 34932 ft | 460 kts | 56° |
| 2026-05-07 17:56 | 56.34818 | 40.31183 | 34926 ft | 460 kts | 56° |
| 2026-05-07 17:57 | 56.37645 | 40.39286 | 34924 ft | 460 kts | 56° |
| 2026-05-07 17:57 | 56.41616 | 40.50718 | 34925 ft | 460 kts | 57° |
| 2026-05-07 17:58 | 56.44999 | 40.60525 | 34930 ft | 460 kts | 58° |
| 2026-05-07 17:58 | 56.47396 | 40.71253 | 34937 ft | 462 kts | 74° |
| 2026-05-07 17:59 | 56.49029 | 40.82491 | 34928 ft | 462 kts | 75° |
| 2026-05-07 17:59 | 56.50646 | 40.93750 | 34933 ft | 462 kts | 75° |
| 2026-05-07 18:00 | 56.52286 | 41.04929 | 34937 ft | 462 kts | 74° |
| 2026-05-07 18:00 | 56.53948 | 41.16180 | 34924 ft | 463 kts | 75° |
| 2026-05-07 18:01 | 56.55563 | 41.27164 | 34926 ft | 463 kts | 75° |
| 2026-05-07 18:01 | 56.57207 | 41.38436 | 34923 ft | 462 kts | 75° |
| 2026-05-07 18:02 | 56.59653 | 41.55357 | 34927 ft | 462 kts | 75° |
| 2026-05-07 18:03 | 56.61264 | 41.66616 | 34924 ft | 461 kts | 75° |
| 2026-05-07 18:03 | 56.62866 | 41.77888 | 34925 ft | 460 kts | 75° |
| 2026-05-07 18:04 | 56.64454 | 41.89145 | 34917 ft | 460 kts | 75° |
| 2026-05-07 18:04 | 56.66029 | 42.00393 | 34916 ft | 459 kts | 75° |
| 2026-05-07 18:05 | 56.67592 | 42.11630 | 34916 ft | 458 kts | 75° |
| 2026-05-07 18:05 | 56.69145 | 42.22870 | 34912 ft | 457 kts | 76° |
| 2026-05-07 18:06 | 56.70682 | 42.34086 | 34909 ft | 457 kts | 76° |
| 2026-05-07 18:06 | 56.72212 | 42.45320 | 34907 ft | 457 kts | 76° |
| 2026-05-07 18:07 | 56.73732 | 42.56557 | 34908 ft | 457 kts | 75° |
| 2026-05-07 18:07 | 56.75468 | 42.67707 | 34908 ft | 458 kts | 72° |
| 2026-05-07 18:08 | 56.77340 | 42.78817 | 34907 ft | 459 kts | 72° |
| 2026-05-07 18:08 | 56.79193 | 42.89991 | 34898 ft | 461 kts | 73° |
| 2026-05-07 18:09 | 56.81000 | 43.01136 | 34900 ft | 462 kts | 73° |
| 2026-05-07 18:09 | 56.82800 | 43.12405 | 34897 ft | 463 kts | 73° |
| 2026-05-07 18:10 | 56.84594 | 43.23717 | 34900 ft | 464 kts | 73° |
| 2026-05-07 18:10 | 56.86377 | 43.35033 | 34897 ft | 464 kts | 73° |
| 2026-05-07 18:11 | 56.88153 | 43.46373 | 34899 ft | 464 kts | 73° |
| 2026-05-07 18:11 | 56.89918 | 43.57725 | 34896 ft | 464 kts | 73° |
| 2026-05-07 18:12 | 56.91674 | 43.69086 | 34897 ft | 464 kts | 73° |
| 2026-05-07 18:12 | 56.93399 | 43.80331 | 34897 ft | 463 kts | 74° |
| 2026-05-07 18:13 | 56.95129 | 43.91682 | 34900 ft | 463 kts | 74° |
| 2026-05-07 18:13 | 56.96849 | 44.03039 | 34898 ft | 462 kts | 74° |
| 2026-05-07 18:14 | 56.98554 | 44.14395 | 34897 ft | 462 kts | 74° |
| 2026-05-07 18:14 | 57.00252 | 44.25761 | 34898 ft | 462 kts | 74° |
| 2026-05-07 18:15 | 57.01938 | 44.37134 | 34898 ft | 462 kts | 74° |
| 2026-05-07 18:15 | 57.03604 | 44.48453 | 34909 ft | 462 kts | 74° |
| 2026-05-07 18:16 | 57.05271 | 44.59858 | 34909 ft | 463 kts | 75° |
| 2026-05-07 18:16 | 57.06931 | 44.71304 | 34915 ft | 464 kts | 75° |
| 2026-05-07 18:17 | 57.08581 | 44.82764 | 34917 ft | 464 kts | 75° |
| 2026-05-07 18:17 | 57.10224 | 44.94241 | 34916 ft | 465 kts | 75° |
| 2026-05-07 18:18 | 57.11861 | 45.05762 | 34922 ft | 465 kts | 75° |
| 2026-05-07 18:18 | 57.13487 | 45.17294 | 34925 ft | 466 kts | 75° |
| 2026-05-07 18:19 | 57.15104 | 45.28853 | 34925 ft | 467 kts | 75° |
| 2026-05-07 18:19 | 57.16712 | 45.40439 | 34926 ft | 467 kts | 75° |
| 2026-05-07 18:20 | 57.18313 | 45.52052 | 34927 ft | 468 kts | 75° |
| 2026-05-07 18:20 | 57.19905 | 45.63685 | 34935 ft | 468 kts | 76° |
| 2026-05-07 18:21 | 57.21487 | 45.75335 | 34932 ft | 469 kts | 76° |
| 2026-05-07 18:21 | 57.23059 | 45.87015 | 34935 ft | 469 kts | 76° |
| 2026-05-07 18:22 | 57.24610 | 45.98614 | 34936 ft | 469 kts | 76° |
| 2026-05-07 18:22 | 57.26160 | 46.10307 | 34942 ft | 469 kts | 76° |
| 2026-05-07 18:23 | 57.27701 | 46.22012 | 34947 ft | 469 kts | 76° |
| 2026-05-07 18:23 | 57.29231 | 46.33730 | 34942 ft | 469 kts | 76° |
| 2026-05-07 18:24 | 57.30752 | 46.45475 | 34945 ft | 469 kts | 76° |
| 2026-05-07 18:24 | 57.32262 | 46.57228 | 34948 ft | 470 kts | 76° |
| 2026-05-07 18:25 | 57.33762 | 46.68983 | 34950 ft | 470 kts | 76° |
| 2026-05-07 18:25 | 57.35510 | 46.80618 | 34945 ft | 469 kts | 66° |
| 2026-05-07 18:26 | 57.38218 | 46.91593 | 34950 ft | 468 kts | 64° |
| 2026-05-07 18:26 | 57.40958 | 47.02542 | 34954 ft | 468 kts | 64° |
| 2026-05-07 18:27 | 57.43638 | 47.13550 | 34956 ft | 468 kts | 65° |
| 2026-05-07 18:27 | 57.46288 | 47.24591 | 34953 ft | 468 kts | 65° |
| 2026-05-07 18:28 | 57.48927 | 47.35630 | 34954 ft | 468 kts | 65° |
| 2026-05-07 18:28 | 57.51563 | 47.46694 | 34962 ft | 468 kts | 65° |
| 2026-05-07 18:29 | 57.54192 | 47.57766 | 34970 ft | 468 kts | 65° |
| 2026-05-07 18:29 | 57.56373 | 47.67001 | 34973 ft | 469 kts | 65° |
| 2026-05-07 18:30 | 57.58986 | 47.78121 | 34970 ft | 469 kts | 65° |
| 2026-05-07 18:30 | 57.62017 | 47.91090 | 34972 ft | 470 kts | 65° |
| 2026-05-07 18:31 | 57.64201 | 48.00483 | 34974 ft | 471 kts | 65° |
| 2026-05-07 18:31 | 57.66783 | 48.11636 | 34975 ft | 471 kts | 65° |
| 2026-05-07 18:32 | 57.69373 | 48.22888 | 34983 ft | 472 kts | 65° |
| 2026-05-07 18:32 | 57.71961 | 48.34184 | 34982 ft | 472 kts | 66° |
| 2026-05-07 18:33 | 57.74494 | 48.45530 | 34980 ft | 473 kts | 70° |
| 2026-05-07 18:33 | 57.75344 | 48.51478 | 34974 ft | 474 kts | 81° |
| 2026-05-07 18:33 | 57.75807 | 48.57570 | 34994 ft | 473 kts | 83° |
| 2026-05-07 18:34 | 57.76598 | 48.69795 | 34980 ft | 472 kts | 83° |
| 2026-05-07 18:34 | 57.77398 | 48.81997 | 34978 ft | 471 kts | 83° |
| 2026-05-07 18:35 | 57.78228 | 48.94139 | 34979 ft | 470 kts | 82° |
| 2026-05-07 18:35 | 57.79061 | 49.06259 | 34982 ft | 468 kts | 82° |
| 2026-05-07 18:36 | 57.79881 | 49.18347 | 34982 ft | 467 kts | 82° |
| 2026-05-07 18:36 | 57.80681 | 49.30342 | 34980 ft | 466 kts | 83° |
| 2026-05-07 18:37 | 57.81478 | 49.42480 | 34983 ft | 466 kts | 83° |
| 2026-05-07 18:37 | 57.82258 | 49.54549 | 34981 ft | 466 kts | 83° |
| 2026-05-07 18:38 | 57.83026 | 49.66616 | 34984 ft | 466 kts | 83° |
| 2026-05-07 18:38 | 57.83785 | 49.78725 | 34980 ft | 468 kts | 83° |
| 2026-05-07 18:39 | 57.84530 | 49.90774 | 34982 ft | 469 kts | 83° |
| 2026-05-07 18:39 | 57.85271 | 50.02952 | 34982 ft | 470 kts | 83° |
| 2026-05-07 18:40 | 57.86005 | 50.15142 | 34984 ft | 471 kts | 83° |
| 2026-05-07 18:40 | 57.86734 | 50.27373 | 34989 ft | 471 kts | 83° |
| 2026-05-07 18:41 | 57.87451 | 50.39613 | 34990 ft | 472 kts | 83° |
| 2026-05-07 18:41 | 57.88156 | 50.51869 | 34996 ft | 472 kts | 83° |
| 2026-05-07 18:42 | 57.88851 | 50.64127 | 34990 ft | 472 kts | 83° |
| 2026-05-07 18:42 | 57.89532 | 50.76374 | 34994 ft | 471 kts | 84° |
| 2026-05-07 18:43 | 57.90200 | 50.88611 | 34986 ft | 470 kts | 84° |
| 2026-05-07 18:43 | 57.90854 | 51.00814 | 35009 ft | 469 kts | 84° |
| 2026-05-07 18:44 | 57.91495 | 51.12996 | 35001 ft | 467 kts | 84° |
| 2026-05-07 18:44 | 57.92124 | 51.25143 | 34997 ft | 466 kts | 84° |
| 2026-05-07 18:45 | 57.92741 | 51.37286 | 34994 ft | 466 kts | 84° |
| 2026-05-07 18:45 | 57.93346 | 51.49414 | 34995 ft | 465 kts | 84° |
| 2026-05-07 18:46 | 57.93937 | 51.61528 | 34998 ft | 465 kts | 84° |
| 2026-05-07 18:46 | 57.94522 | 51.73715 | 34702 ft | 471 kts | 84° |
| 2026-05-07 18:46 | 57.94808 | 51.79761 | 34454 ft | 469 kts | 84° |
| 2026-05-07 18:47 | 57.95098 | 51.85958 | 33880 ft | 469 kts | 84° |
| 2026-05-07 18:47 | 57.95380 | 51.92055 | 33301 ft | 467 kts | 84° |
| 2026-05-07 18:47 | 57.95656 | 51.98062 | 32722 ft | 465 kts | 84° |
| 2026-05-07 18:47 | 57.95934 | 52.04167 | 32304 ft | 460 kts | 84° |
| 2026-05-07 18:48 | 57.96200 | 52.10067 | 31849 ft | 456 kts | 84° |
| 2026-05-07 18:48 | 57.96462 | 52.15982 | 31402 ft | 451 kts | 85° |
| 2026-05-07 18:48 | 57.96721 | 52.21843 | 30966 ft | 447 kts | 85° |
| 2026-05-07 18:48 | 57.96974 | 52.27652 | 30533 ft | 443 kts | 85° |
| 2026-05-07 18:49 | 57.97223 | 52.33408 | 30097 ft | 439 kts | 85° |
| 2026-05-07 18:49 | 57.97467 | 52.39116 | 29672 ft | 435 kts | 85° |
| 2026-05-07 18:49 | 57.97707 | 52.44768 | 29244 ft | 431 kts | 85° |
| 2026-05-07 18:49 | 57.97942 | 52.50375 | 28800 ft | 427 kts | 85° |
| 2026-05-07 18:50 | 57.98172 | 52.55918 | 28381 ft | 423 kts | 85° |
| 2026-05-07 18:50 | 57.98398 | 52.61416 | 27942 ft | 419 kts | 85° |
| 2026-05-07 18:50 | 57.98620 | 52.66868 | 27514 ft | 416 kts | 85° |
| 2026-05-07 18:50 | 57.98838 | 52.72276 | 27090 ft | 412 kts | 85° |
| 2026-05-07 18:51 | 57.99051 | 52.77631 | 26670 ft | 408 kts | 85° |
| 2026-05-07 18:51 | 57.99260 | 52.82955 | 26251 ft | 405 kts | 85° |
| 2026-05-07 18:51 | 57.99466 | 52.88235 | 25831 ft | 402 kts | 85° |
| 2026-05-07 18:51 | 57.99667 | 52.93453 | 25426 ft | 398 kts | 85° |
| 2026-05-07 18:52 | 57.99865 | 52.98647 | 25005 ft | 395 kts | 85° |
| 2026-05-07 18:52 | 58.00056 | 53.03689 | 24610 ft | 393 kts | 85° |
| 2026-05-07 18:52 | 58.00247 | 53.08812 | 24200 ft | 391 kts | 86° |
| 2026-05-07 18:52 | 58.00433 | 53.13850 | 23792 ft | 390 kts | 86° |
| 2026-05-07 18:53 | 58.00619 | 53.18946 | 23394 ft | 389 kts | 86° |
| 2026-05-07 18:53 | 58.00804 | 53.24051 | 22993 ft | 394 kts | 86° |
| 2026-05-07 18:53 | 58.00990 | 53.29262 | 22585 ft | 401 kts | 86° |
| 2026-05-07 18:53 | 58.01175 | 53.34501 | 22151 ft | 400 kts | 86° |
| 2026-05-07 18:54 | 58.01357 | 53.39702 | 21725 ft | 396 kts | 86° |
| 2026-05-07 18:54 | 58.01534 | 53.44854 | 21307 ft | 392 kts | 86° |
| 2026-05-07 18:54 | 58.01708 | 53.49958 | 20898 ft | 388 kts | 86° |
| 2026-05-07 18:54 | 58.01879 | 53.55019 | 20489 ft | 385 kts | 86° |
| 2026-05-07 18:55 | 58.02046 | 53.60039 | 20087 ft | 381 kts | 86° |
| 2026-05-07 18:55 | 58.02209 | 53.65011 | 19684 ft | 378 kts | 87° |
| 2026-05-07 18:55 | 58.02369 | 53.69935 | 19292 ft | 375 kts | 87° |
| 2026-05-07 18:55 | 58.02526 | 53.74818 | 18911 ft | 371 kts | 87° |
| 2026-05-07 18:56 | 58.02679 | 53.79649 | 18526 ft | 368 kts | 87° |
| 2026-05-07 18:56 | 58.02830 | 53.84448 | 18140 ft | 365 kts | 87° |
| 2026-05-07 18:56 | 58.02979 | 53.89201 | 17750 ft | 362 kts | 87° |
| 2026-05-07 18:56 | 58.03124 | 53.93923 | 17365 ft | 359 kts | 87° |
| 2026-05-07 18:57 | 58.03266 | 53.98609 | 16974 ft | 356 kts | 87° |
| 2026-05-07 18:57 | 58.03406 | 54.03269 | 16686 ft | 353 kts | 87° |
| 2026-05-07 18:57 | 58.03546 | 54.07884 | 16437 ft | 355 kts | 87° |
| 2026-05-07 18:57 | 58.03687 | 54.12577 | 16200 ft | 360 kts | 87° |
| 2026-05-07 18:58 | 58.03829 | 54.17325 | 15623 ft | 367 kts | 87° |
| 2026-05-07 18:58 | 58.03969 | 54.22087 | 15121 ft | 367 kts | 87° |
| 2026-05-07 18:58 | 58.04109 | 54.26883 | 14677 ft | 365 kts | 87° |
| 2026-05-07 18:58 | 58.04246 | 54.31638 | 14277 ft | 361 kts | 87° |
| 2026-05-07 18:59 | 58.04380 | 54.36355 | 13869 ft | 358 kts | 87° |
| 2026-05-07 18:59 | 58.04511 | 54.41020 | 13478 ft | 354 kts | 87° |
| 2026-05-07 18:59 | 58.04639 | 54.45644 | 13083 ft | 351 kts | 87° |
| 2026-05-07 18:59 | 58.04764 | 54.50221 | 12705 ft | 348 kts | 87° |
| 2026-05-07 19:00 | 58.04887 | 54.54760 | 12327 ft | 344 kts | 87° |
| 2026-05-07 19:00 | 58.05007 | 54.59251 | 11952 ft | 342 kts | 87° |
| 2026-05-07 19:00 | 58.05125 | 54.63721 | 11574 ft | 339 kts | 87° |
| 2026-05-07 19:00 | 58.05240 | 54.68140 | 11198 ft | 336 kts | 87° |
| 2026-05-07 19:01 | 58.05352 | 54.72521 | 10825 ft | 333 kts | 87° |
| 2026-05-07 19:01 | 58.05456 | 54.76861 | 10539 ft | 327 kts | 89° |
| 2026-05-07 19:01 | 58.05146 | 54.81021 | 10400 ft | 316 kts | 108° |
| 2026-05-07 19:01 | 58.04693 | 54.83595 | 10335 ft | 309 kts | 109° |
| 2026-05-07 19:02 | 58.03781 | 54.88655 | 10075 ft | 301 kts | 109° |
| 2026-05-07 19:02 | 58.03114 | 54.92381 | 9819 ft | 298 kts | 109° |
| 2026-05-07 19:02 | 58.02459 | 54.96060 | 9567 ft | 294 kts | 109° |
| 2026-05-07 19:02 | 58.01818 | 54.99687 | 9318 ft | 290 kts | 109° |
| 2026-05-07 19:03 | 58.01187 | 55.03274 | 9064 ft | 287 kts | 108° |
| 2026-05-07 19:03 | 58.00563 | 55.06822 | 8810 ft | 283 kts | 108° |
| 2026-05-07 19:03 | 57.99946 | 55.10329 | 8556 ft | 280 kts | 108° |
| 2026-05-07 19:03 | 57.99335 | 55.13801 | 8307 ft | 277 kts | 108° |
| 2026-05-07 19:04 | 57.98731 | 55.17231 | 8060 ft | 275 kts | 108° |
| 2026-05-07 19:04 | 57.98131 | 55.20637 | 7810 ft | 272 kts | 108° |
| 2026-05-07 19:04 | 57.97536 | 55.24006 | 7561 ft | 270 kts | 108° |
| 2026-05-07 19:04 | 57.96951 | 55.27311 | 7333 ft | 262 kts | 108° |
| 2026-05-07 19:05 | 57.96384 | 55.30516 | 7043 ft | 255 kts | 108° |
| 2026-05-07 19:05 | 57.95838 | 55.33593 | 6760 ft | 248 kts | 108° |
| 2026-05-07 19:05 | 57.95297 | 55.36635 | 6462 ft | 242 kts | 108° |
| 2026-05-07 19:05 | 57.94768 | 55.39605 | 6194 ft | 237 kts | 108° |
| 2026-05-07 19:06 | 57.94251 | 55.42510 | 5917 ft | 232 kts | 108° |
| 2026-05-07 19:06 | 57.93240 | 55.48153 | 5362 ft | 224 kts | 108° |
| 2026-05-07 19:06 | 57.92747 | 55.50898 | 5078 ft | 219 kts | 107° |
| 2026-05-07 19:07 | 57.92108 | 55.53467 | 4775 ft | 217 kts | 129° |
| 2026-05-07 19:07 | 57.91028 | 55.55406 | 4525 ft | 213 kts | 135° |
| 2026-05-07 19:07 | 57.89964 | 55.57318 | 4256 ft | 210 kts | 134° |
| 2026-05-07 19:07 | 57.88928 | 55.59210 | 3997 ft | 206 kts | 134° |
| 2026-05-07 19:08 | 57.87917 | 55.61064 | 3805 ft | 201 kts | 133° |
| 2026-05-07 19:08 | 57.86935 | 55.62866 | 3636 ft | 194 kts | 133° |
| 2026-05-07 19:08 | 57.85983 | 55.64611 | 3475 ft | 189 kts | 133° |
| 2026-05-07 19:08 | 57.85050 | 55.66323 | 3355 ft | 187 kts | 133° |
| 2026-05-07 19:09 | 57.84116 | 55.68035 | 3256 ft | 189 kts | 133° |
| 2026-05-07 19:09 | 57.83170 | 55.69768 | 3172 ft | 191 kts | 133° |
| 2026-05-07 19:09 | 57.82218 | 55.71509 | 3124 ft | 191 kts | 133° |
| 2026-05-07 19:09 | 57.81267 | 55.73246 | 3086 ft | 191 kts | 133° |
| 2026-05-07 19:10 | 57.80330 | 55.75004 | 3021 ft | 190 kts | 126° |
| 2026-05-07 19:10 | 57.79884 | 55.77235 | 2948 ft | 182 kts | 90° |
| 2026-05-07 19:10 | 57.80143 | 55.79490 | 2878 ft | 179 kts | 52° |
| 2026-05-07 19:10 | 57.80961 | 55.81245 | 2867 ft | 181 kts | 49° |
| 2026-05-07 19:11 | 57.81735 | 55.83075 | 2791 ft | 183 kts | 50° |
| 2026-05-07 19:11 | 57.82580 | 55.84868 | 2594 ft | 181 kts | 46° |
| 2026-05-07 19:11 | 57.83422 | 55.86523 | 2367 ft | 169 kts | 46° |
| 2026-05-07 19:11 | 57.84210 | 55.88054 | 2176 ft | 156 kts | 45° |
| 2026-05-07 19:12 | 57.84937 | 55.89470 | 1955 ft | 144 kts | 45° |
| 2026-05-07 19:12 | 57.85613 | 55.90785 | 1798 ft | 136 kts | 46° |
| 2026-05-07 19:12 | 57.86284 | 55.92092 | 1597 ft | 141 kts | 46° |
| 2026-05-07 19:12 | 57.86971 | 55.93428 | 1402 ft | 142 kts | 46° |
| 2026-05-07 19:13 | 57.87654 | 55.94759 | 1212 ft | 140 kts | 45° |
| 2026-05-07 19:13 | 57.88103 | 55.95632 | 1096 ft | 140 kts | 45° |
| 2026-05-07 19:13 | 57.89017 | 55.97405 | 830 ft | 142 kts | 46° |
| 2026-05-07 19:13 | 57.89696 | 55.98728 | 641 ft | 140 kts | 45° |
| 2026-05-07 19:14 | 57.90370 | 56.00037 | 461 ft | 138 kts | 46° |
| 2026-05-07 19:14 | 57.91010 | 56.01282 | 393 ft | 120 kts | 46° |
| 2026-05-07 19:14 | 57.91488 | 56.02207 | 395 ft | 77 kts | 46° |
| 2026-05-07 19:14 | 57.91638 | 56.02495 | 399 ft | 7 kts | 31° |
| 2026-05-07 19:15 | 57.91683 | 56.02468 | 392 ft | 9 kts | 320° |
| 2026-05-07 19:15 | 57.91731 | 56.02382 | 395 ft | 9 kts | 316° |
| 2026-05-07 19:15 | 57.91778 | 56.02298 | 395 ft | 9 kts | 316° |
| 2026-05-07 19:15 | 57.91821 | 56.02220 | 397 ft | 7 kts | 315° |
| 2026-05-07 19:16 | 57.91852 | 56.02179 | 393 ft | 5 kts | 347° |
| 2026-05-07 19:16 | 57.91878 | 56.02197 | 397 ft | 4 kts | 34° |
| 2026-05-07 19:16 | 57.91903 | 56.02200 | 395 ft | 4 kts | 335° |
| 2026-05-07 19:16 | 57.91923 | 56.02168 | 397 ft | 4 kts | 317° |
| 2026-05-07 19:17 | 57.91936 | 56.02146 | 395 ft | 1 kts | 317° |
| 2026-05-07 19:17 | 57.91939 | 56.02141 | 397 ft | 0 kts | 317° |